Time;durP1;ratioP1;P1;durP2;ratioP2;P2;SDS_P1;SDS_P2;PMS_P1;PMS_P2;Temp;Humidity;BMP_temperature;BMP_pressure;BME280_temperature;BME280_humidity;BME280_pressure;Samples;Min_cycle;Max_cycle;Signal;HPM_P1;HPM_P2
2022/06/20 00:00:23;;;;;;;2.30;0.90;;;;;;;30.61;20.96;101524.75;5073967;28;20025;-57
2022/06/20 00:02:55;;;;;;;1.58;0.70;;;;;;;30.82;21.16;101536.00;5072945;28;20082;-59
2022/06/20 00:05:30;;;;;;;2.90;1.23;;;;;;;30.77;21.37;101528.66;5072241;28;20032;-57
2022/06/20 00:07:57;;;;;;;1.83;0.77;;;;;;;30.80;21.76;101532.72;5072447;28;20025;-59
2022/06/20 00:10:25;;;;;;;1.73;0.85;;;;;;;30.77;21.48;101520.38;5073166;28;20032;-56
2022/06/20 00:12:53;;;;;;;1.73;0.90;;;;;;;30.76;22.53;101521.50;5072582;28;20040;-56
2022/06/20 00:15:31;;;;;;;5.28;1.30;;;;;;;30.72;23.48;101515.81;5071547;28;20060;-57
2022/06/20 00:18:00;;;;;;;2.10;1.00;;;;;;;30.73;22.09;101517.44;5073488;28;20017;-57
2022/06/20 00:20:26;;;;;;;2.85;1.13;;;;;;;30.70;23.47;101515.31;5072251;28;20024;-58
2022/06/20 00:22:54;;;;;;;2.78;1.27;;;;;;;30.67;24.51;101510.44;5070992;28;20035;-58
2022/06/20 00:25:20;;;;;;;2.05;1.00;;;;;;;30.51;23.93;101509.28;5072029;28;20017;-58
2022/06/20 00:27:47;;;;;;;2.60;1.15;;;;;;;30.46;24.38;101506.69;5071098;28;20083;-58
2022/06/20 00:30:16;;;;;;;2.15;0.93;;;;;;;30.52;24.35;101505.38;5072271;28;20553;-59
2022/06/20 00:32:43;;;;;;;1.73;1.10;;;;;;;30.34;24.03;101512.06;5072074;28;20419;-57
2022/06/20 00:35:10;;;;;;;2.50;1.20;;;;;;;30.12;24.61;101505.53;5069624;28;20025;-57
2022/06/20 00:37:36;;;;;;;4.88;1.50;;;;;;;30.26;27.14;101507.31;5072242;28;20033;-58
2022/06/20 00:40:17;;;;;;;3.17;1.52;;;;;;;29.98;26.61;101508.41;5071814;28;20021;-59
2022/06/20 00:42:43;;;;;;;2.88;1.42;;;;;;;29.80;25.11;101503.13;5072844;28;20366;-58
2022/06/20 00:45:13;;;;;;;4.95;1.70;;;;;;;29.57;28.11;101513.44;5071515;28;20439;-58
2022/06/20 00:47:39;;;;;;;3.67;1.70;;;;;;;29.34;25.65;101505.19;5071818;28;20568;-59
2022/06/20 00:50:20;;;;;;;7.97;1.70;;;;;;;29.24;26.47;101510.16;5073094;28;20101;-58
2022/06/20 00:53:01;;;;;;;5.28;1.73;;;;;;;29.21;26.08;101503.34;5070913;28;20068;-58
2022/06/20 00:55:37;;;;;;;6.78;2.25;;;;;;;28.87;27.72;101501.13;5071251;28;20431;-58
2022/06/20 00:58:19;;;;;;;7.82;2.90;;;;;;;28.56;30.76;101507.41;5071568;28;20451;-58
2022/06/20 01:00:46;;;;;;;6.53;2.70;;;;;;;27.68;31.77;101501.25;5072885;28;20036;-58
2022/06/20 01:03:21;;;;;;;10.65;3.08;;;;;;;27.71;30.69;101502.63;5071512;28;20109;-58
2022/06/20 01:05:53;;;;;;;9.85;3.13;;;;;;;27.58;31.50;101499.50;5071399;28;20036;-58
2022/06/20 01:08:22;;;;;;;6.00;2.90;;;;;;;27.55;31.07;101500.13;5071254;28;20029;-59
2022/06/20 01:11:02;;;;;;;8.60;3.00;;;;;;;26.19;33.85;101491.03;5072394;28;20033;-66
2022/06/20 01:13:29;;;;;;;9.23;3.22;;;;;;;24.97;34.25;101495.88;5062362;28;20024;-67
2022/06/20 01:16:15;;;;;;;9.02;3.00;;;;;;;25.73;34.81;101499.81;5061043;28;20112;-67
2022/06/20 01:18:45;;;;;;;9.07;2.92;;;;;;;24.87;34.43;101501.44;5057785;28;20027;-67
2022/06/20 01:21:24;;;;;;;9.85;3.00;;;;;;;25.12;36.04;101500.44;5052624;28;20112;-68
2022/06/20 01:24:11;;;;;;;10.90;3.35;;;;;;;25.09;34.77;101501.00;5066746;28;20039;-67
2022/06/20 01:26:52;;;;;;;11.20;3.58;;;;;;;25.04;35.18;101495.53;5052198;28;20205;-68
2022/06/20 01:29:18;;;;;;;7.45;3.30;;;;;;;24.33;36.27;101491.38;5050551;28;20033;-67
2022/06/20 01:31:56;;;;;;;6.47;2.92;;;;;;;24.40;36.17;101491.91;5061465;28;20537;-67
2022/06/20 01:34:22;;;;;;;7.50;2.85;;;;;;;24.31;37.01;101493.56;5069067;28;20077;-64
2022/06/20 01:39:43;;;;;;;8.50;2.83;;;;;;;24.36;36.13;101485.38;5052466;28;20039;-68
2022/06/20 01:42:21;;;;;;;9.55;2.80;;;;;;;24.67;36.29;101490.66;5055711;28;20052;-68
2022/06/20 01:44:53;;;;;;;9.38;3.25;;;;;;;24.47;37.11;101492.41;5052202;28;20096;-66
2022/06/20 01:47:20;;;;;;;11.30;3.30;;;;;;;24.70;36.50;101490.88;5062309;28;20111;-67
2022/06/20 01:49:51;;;;;;;7.15;2.40;;;;;;;24.91;36.23;101486.06;5071695;28;20454;-66
2022/06/20 01:52:39;;;;;;;7.60;2.78;;;;;;;24.16;36.78;101483.53;5071704;28;20054;-66
2022/06/20 01:55:12;;;;;;;12.07;3.30;;;;;;;23.96;37.00;101478.97;5071580;28;20039;-66
2022/06/20 01:57:42;;;;;;;11.17;3.13;;;;;;;24.01;37.61;101483.59;5062207;28;20024;-66
2022/06/20 02:00:18;;;;;;;9.80;3.45;;;;;;;24.38;37.32;101485.91;5054428;28;20036;-66
2022/06/20 02:02:56;;;;;;;8.00;3.00;;;;;;;25.01;35.71;101477.78;5051393;28;20025;-65
2022/06/20 02:05:27;;;;;;;12.98;3.33;;;;;;;25.24;35.08;101476.22;5066741;28;20028;-66
2022/06/20 02:07:57;;;;;;;8.15;3.42;;;;;;;23.96;36.58;101486.38;5070139;28;20024;-68
2022/06/20 02:10:35;;;;;;;14.63;4.32;;;;;;;24.38;36.66;101485.09;5069155;28;20432;-61
2022/06/20 02:13:03;;;;;;;10.57;3.42;;;;;;;24.69;36.98;101475.56;5066588;28;20489;-62
2022/06/20 02:15:31;;;;;;;9.30;3.50;;;;;;;25.70;35.33;101472.16;5067658;28;20036;-61
2022/06/20 02:18:02;;;;;;;10.65;3.28;;;;;;;25.51;34.42;101477.59;5051897;28;20028;-62
2022/06/20 02:20:33;;;;;;;7.72;3.45;;;;;;;26.25;34.31;101478.88;5056364;28;20040;-61
2022/06/20 02:23:00;;;;;;;10.77;3.08;;;;;;;26.04;35.46;101478.34;5071257;28;20020;-62
2022/06/20 02:25:31;;;;;;;11.95;3.72;;;;;;;26.15;35.20;101481.78;5060202;28;20473;-62
2022/06/20 02:28:10;;;;;;;15.30;3.45;;;;;;;26.06;35.68;101486.28;5069440;28;20048;-62
2022/06/20 02:30:38;;;;;;;11.82;3.40;;;;;;;26.12;34.77;101495.25;5071784;28;20077;-61
2022/06/20 02:33:11;;;;;;;12.77;3.70;;;;;;;26.28;34.78;101496.69;5071058;28;20073;-61
2022/06/20 02:35:39;;;;;;;12.10;3.72;;;;;;;26.04;35.49;101500.31;5051175;28;20029;-62
2022/06/20 02:38:06;;;;;;;8.68;3.35;;;;;;;26.31;34.62;101496.91;5058601;28;20040;-64
2022/06/20 02:40:33;;;;;;;8.88;3.53;;;;;;;26.52;34.64;101500.19;5061745;28;20033;-64
2022/06/20 02:43:10;;;;;;;9.20;3.30;;;;;;;26.48;33.84;101501.09;5064556;28;20542;-64
2022/06/20 02:45:40;;;;;;;8.98;3.30;;;;;;;26.33;34.24;101502.09;5050789;28;20396;-64
2022/06/20 02:48:09;;;;;;;11.75;3.88;;;;;;;24.22;37.63;101503.47;5051095;28;20363;-64
2022/06/20 02:50:41;;;;;;;11.48;3.40;;;;;;;25.12;36.53;101507.84;5051051;28;20036;-64
2022/06/20 02:53:20;;;;;;;12.45;3.78;;;;;;;24.54;37.34;101505.81;5051427;28;20052;-64
2022/06/20 02:55:47;;;;;;;10.60;3.90;;;;;;;23.93;39.41;101504.16;5060600;28;20029;-64
2022/06/20 02:58:20;;;;;;;9.52;3.75;;;;;;;23.82;39.21;101501.72;5070999;28;20025;-64
2022/06/20 03:01:01;;;;;;;12.60;4.28;;;;;;;23.43;38.59;101499.59;5071256;28;20017;-64
2022/06/20 03:03:33;;;;;;;10.80;3.70;;;;;;;23.95;38.21;101504.69;5053313;28;20396;-64
2022/06/20 03:06:01;;;;;;;14.68;4.28;;;;;;;23.26;39.99;101505.38;5070420;28;20024;-64
2022/06/20 03:08:27;;;;;;;14.02;4.35;;;;;;;21.68;43.68;101491.34;5070842;28;20491;-63
2022/06/20 03:10:55;;;;;;;18.70;5.25;;;;;;;21.48;44.93;101504.81;5053051;28;20329;-62
2022/06/20 03:13:23;;;;;;;13.80;5.38;;;;;;;22.09;44.46;101495.06;5067100;28;20372;-64
2022/06/20 03:15:51;;;;;;;13.70;4.75;;;;;;;21.92;44.52;101493.63;5070266;28;20024;-63
2022/06/20 03:18:20;;;;;;;13.55;5.35;;;;;;;21.04;46.67;101497.69;5074893;28;20024;-63
2022/06/20 03:20:46;;;;;;;16.83;4.63;;;;;;;21.42;46.12;101497.72;5074432;28;20025;-64
2022/06/20 03:23:32;;;;;;;13.35;4.20;;;;;;;20.81;47.09;101498.84;5052697;28;20072;-63
2022/06/20 03:26:02;;;;;;;12.85;4.25;;;;;;;20.49;47.67;101500.72;5054565;28;20036;-64
2022/06/20 03:28:31;;;;;;;16.20;4.47;;;;;;;20.67;47.74;101505.78;5054555;28;20501;-63
2022/06/20 03:31:00;;;;;;;26.98;5.82;;;;;;;20.16;49.00;101516.09;5074290;28;20020;-63
2022/06/20 03:33:27;;;;;;;27.35;5.88;;;;;;;20.23;48.50;101519.41;5056701;28;20377;-63
2022/06/20 03:36:16;;;;;;;15.55;4.75;;;;;;;19.84;48.93;101521.38;5073899;28;20051;-63
2022/06/20 03:38:45;;;;;;;19.63;5.25;;;;;;;19.55;49.79;101520.66;5074343;28;20035;-63
2022/06/20 03:41:14;;;;;;;28.48;5.93;;;;;;;18.78;51.54;101515.88;5073876;28;20115;-62
2022/06/20 03:43:46;;;;;;;14.80;4.60;;;;;;;19.16;51.34;101522.50;5073941;28;20040;-62
2022/06/20 03:46:29;;;;;;;13.55;4.65;;;;;;;19.24;51.31;101530.22;5072694;28;20059;-62
2022/06/20 03:49:05;;;;;;;15.80;4.57;;;;;;;19.21;52.35;101530.69;5072907;28;20365;-62
2022/06/20 03:51:41;;;;;;;18.58;5.47;;;;;;;19.00;53.30;101518.72;5074293;28;20185;-62
2022/06/20 03:54:19;;;;;;;23.88;5.72;;;;;;;18.88;53.26;101526.91;5071066;28;20496;-62
2022/06/20 03:56:54;;;;;;;22.92;5.18;;;;;;;18.71;52.75;101531.47;5072712;28;20098;-62
2022/06/20 03:59:28;;;;;;;12.85;5.25;;;;;;;18.65;53.15;101532.41;5071777;28;20029;-62
2022/06/20 04:02:14;;;;;;;17.38;5.25;;;;;;;18.32;54.58;101535.84;5073914;28;20021;-62
2022/06/20 04:04:48;;;;;;;20.48;5.82;;;;;;;18.03;56.06;101526.84;5072488;28;20489;-62
2022/06/20 04:07:27;;;;;;;16.63;5.10;;;;;;;17.74;56.86;101528.66;5073989;28;20033;-62
2022/06/20 04:13:22;;;;;;;13.88;5.53;;;;;;;18.16;55.27;101543.69;5073896;28;20086;-61
2022/06/20 04:15:52;;;;;;;17.08;4.82;;;;;;;18.07;55.08;101545.09;5020240;28;20048;-62
2022/06/20 04:18:36;;;;;;;15.93;4.70;;;;;;;17.97;55.40;101539.47;5073544;28;20032;-61
2022/06/20 04:21:16;;;;;;;16.95;4.97;;;;;;;17.72;56.26;101547.00;5073173;28;20107;-61
2022/06/20 04:24:12;;;;;;;19.88;5.18;;;;;;;18.05;55.16;101552.66;5073333;28;20076;-61
2022/06/20 04:26:45;;;;;;;16.08;4.97;;;;;;;17.97;55.29;101555.72;5073380;28;20025;-62
2022/06/20 04:29:20;;;;;;;12.23;4.10;;;;;;;17.89;55.66;101561.50;5073369;28;20083;-61
2022/06/20 04:31:52;;;;;;;18.10;5.45;;;;;;;17.99;55.03;101560.88;5073323;28;20028;-61
2022/06/20 04:34:55;;;;;;;20.48;5.22;;;;;;;17.75;55.76;101566.31;5066108;28;20052;-61
2022/06/20 04:38:03;;;;;;;18.67;5.25;;;;;;;17.95;55.78;101582.22;5032111;28;20048;-61
2022/06/20 04:40:59;;;;;;;20.45;5.57;;;;;;;17.94;55.91;101569.75;4975058;28;20117;-61
2022/06/20 04:43:27;;;;;;;13.65;4.88;;;;;;;17.98;55.38;101570.91;4991404;28;20549;-61
2022/06/20 04:46:04;;;;;;;17.98;5.75;;;;;;;17.97;55.32;101569.25;5046157;28;20355;-61
2022/06/20 04:48:31;;;;;;;21.38;6.32;;;;;;;18.10;54.41;101573.59;5050899;28;20025;-61
2022/06/20 04:51:01;;;;;;;14.55;4.80;;;;;;;17.97;54.76;101566.53;5055710;28;20039;-61
2022/06/20 04:53:33;;;;;;;18.00;5.15;;;;;;;18.08;54.61;101581.97;5062470;28;20035;-61
2022/06/20 04:56:04;;;;;;;17.13;5.25;;;;;;;18.15;54.67;101579.94;5061381;28;20473;-61
2022/06/20 04:58:44;;;;;;;19.35;5.50;;;;;;;17.75;56.47;101587.16;5072802;28;20025;-61
2022/06/20 05:01:11;;;;;;;15.35;5.45;;;;;;;17.56;57.69;101578.31;5071181;28;20024;-61
2022/06/20 05:03:42;;;;;;;13.23;4.72;;;;;;;17.66;57.26;101579.38;5072517;28;20024;-61
2022/06/20 05:06:23;;;;;;;15.90;5.80;;;;;;;17.88;56.84;101582.34;5067234;28;20024;-61
2022/06/20 05:08:53;;;;;;;21.05;5.55;;;;;;;17.90;56.47;101573.97;5070717;28;20127;-61
2022/06/20 05:11:45;;;;;;;17.75;5.55;;;;;;;18.02;56.17;101573.97;5071229;28;20059;-61
2022/06/20 05:14:25;;;;;;;12.63;4.95;;;;;;;17.95;55.91;101576.81;5072090;28;20495;-61
2022/06/20 05:16:54;;;;;;;18.75;5.30;;;;;;;17.78;57.05;101567.75;5045380;28;20397;-61
2022/06/20 05:19:44;;;;;;;17.77;5.82;;;;;;;17.86;56.36;101567.38;5072658;28;20024;-61
2022/06/20 05:22:16;;;;;;;17.33;5.15;;;;;;;17.91;56.38;101567.50;5040609;28;20033;-60
2022/06/20 05:24:44;;;;;;;15.10;5.07;;;;;;;17.98;55.82;101573.59;5055127;28;20021;-60
2022/06/20 05:27:18;;;;;;;22.73;6.38;;;;;;;17.98;55.84;101576.31;5053432;28;20090;-62
2022/06/20 05:29:46;;;;;;;19.92;5.60;;;;;;;17.97;55.93;101571.13;5070998;28;20107;-62
2022/06/20 05:32:22;;;;;;;19.75;5.32;;;;;;;17.44;57.37;101572.88;5072014;28;20081;-62
2022/06/20 05:35:02;;;;;;;17.88;5.00;;;;;;;17.68;57.01;101562.88;5071927;28;20028;-61
2022/06/20 05:37:46;;;;;;;16.00;5.47;;;;;;;17.53;57.65;101570.63;5053503;28;20024;-61
2022/06/20 05:40:25;;;;;;;18.13;5.70;;;;;;;17.63;57.43;101566.28;5066479;28;20049;-61
2022/06/20 05:42:51;;;;;;;19.15;5.72;;;;;;;17.73;57.50;101563.03;5051828;28;20082;-61
2022/06/20 05:45:22;;;;;;;17.63;5.32;;;;;;;17.74;57.09;101566.56;5057964;28;20032;-62
2022/06/20 05:47:54;;;;;;;19.55;5.28;;;;;;;17.54;57.85;101575.81;5053413;28;20029;-61
2022/06/20 05:50:47;;;;;;;15.70;5.50;;;;;;;17.73;57.63;101573.06;5071827;28;20021;-61
2022/06/20 05:53:24;;;;;;;25.17;5.82;;;;;;;17.51;57.90;101565.47;5070495;28;20036;-61
2022/06/20 05:55:53;;;;;;;16.90;5.28;;;;;;;17.60;57.18;101566.78;5071584;28;20040;-61
2022/06/20 05:58:27;;;;;;;19.17;6.07;;;;;;;17.60;57.10;101563.22;5070836;28;20123;-61
2022/06/20 06:00:57;;;;;;;13.23;4.57;;;;;;;17.61;56.55;101564.91;5051194;28;20448;-62
2022/06/20 06:03:38;;;;;;;17.55;5.00;;;;;;;17.48;56.97;101576.75;5070508;28;20075;-61
2022/06/20 06:06:31;;;;;;;17.08;5.38;;;;;;;17.55;56.63;101572.06;5052831;28;20052;-61
2022/06/20 06:09:18;;;;;;;13.63;5.28;;;;;;;17.60;56.68;101564.06;5071436;28;20024;-61
2022/06/20 06:12:00;;;;;;;12.38;5.07;;;;;;;17.51;56.99;101564.66;5070185;28;20039;-61
2022/06/20 06:14:32;;;;;;;19.45;5.03;;;;;;;17.54;57.03;101570.41;5071304;28;20027;-61
2022/06/20 06:17:11;;;;;;;15.10;5.07;;;;;;;17.31;57.68;101564.97;5069369;28;20134;-61
2022/06/20 06:19:43;;;;;;;14.50;5.95;;;;;;;17.44;57.69;101572.88;5071461;28;20031;-61
2022/06/20 06:22:20;;;;;;;15.73;5.30;;;;;;;17.50;57.57;101571.94;5070277;28;20033;-61
2022/06/20 06:24:51;;;;;;;15.82;5.88;;;;;;;17.31;57.93;101570.38;5071250;28;20028;-61
2022/06/20 06:27:25;;;;;;;17.90;5.65;;;;;;;17.38;58.01;101565.72;5057892;28;20032;-61
2022/06/20 06:30:17;;;;;;;16.05;5.32;;;;;;;17.32;58.01;101567.47;5051384;28;20377;-61
2022/06/20 06:32:50;;;;;;;15.73;5.38;;;;;;;17.29;58.49;101567.91;5051618;28;20025;-61
2022/06/20 06:35:32;;;;;;;15.10;5.82;;;;;;;17.25;58.68;101566.72;5047710;28;20055;-61
2022/06/20 06:38:04;;;;;;;24.85;6.22;;;;;;;17.31;59.15;101575.78;5051247;28;20025;-61
2022/06/20 06:40:36;;;;;;;15.27;5.78;;;;;;;17.18;59.53;101563.31;5043893;28;20090;-60
2022/06/20 06:43:15;;;;;;;19.42;6.32;;;;;;;17.11;60.36;101559.88;5051234;28;20021;-60
2022/06/20 06:45:42;;;;;;;15.27;4.82;;;;;;;17.08;60.13;101560.34;5048591;28;20041;-60
2022/06/20 06:48:31;;;;;;;20.30;6.47;;;;;;;17.06;60.20;101554.34;5051356;28;20028;-60
2022/06/20 06:51:04;;;;;;;17.17;5.63;;;;;;;16.93;60.19;101565.34;5033529;28;20034;-60
2022/06/20 06:53:46;;;;;;;18.52;5.25;;;;;;;16.85;60.65;101572.72;5035108;28;20446;-60
2022/06/20 06:56:19;;;;;;;21.13;4.80;;;;;;;16.84;60.81;101571.09;5048393;28;20037;-60
2022/06/20 06:58:53;;;;;;;21.17;5.50;;;;;;;16.94;60.43;101562.44;5055210;28;20040;-60
2022/06/20 07:01:24;;;;;;;17.73;5.75;;;;;;;16.95;59.96;101564.06;5054019;28;20477;-60
2022/06/20 07:04:00;;;;;;;12.95;5.63;;;;;;;16.92;60.32;101566.41;5054607;28;20546;-60
2022/06/20 07:06:29;;;;;;;17.00;5.75;;;;;;;16.77;60.88;101570.38;5052725;28;20562;-60
2022/06/20 07:09:10;;;;;;;18.92;5.75;;;;;;;16.84;60.84;101565.69;5054477;28;20039;-60
2022/06/20 07:11:43;;;;;;;20.38;5.85;;;;;;;16.68;61.19;101565.47;5053098;28;20470;-60
2022/06/20 07:14:20;;;;;;;17.35;5.50;;;;;;;16.70;61.16;101569.59;5054781;28;20036;-60
2022/06/20 07:16:56;;;;;;;17.67;5.78;;;;;;;16.64;61.25;101559.69;5052133;28;20095;-60
2022/06/20 07:19:24;;;;;;;26.38;5.85;;;;;;;16.61;60.94;101560.16;5054867;28;20481;-60
2022/06/20 07:21:51;;;;;;;21.48;6.28;;;;;;;16.68;61.38;101576.28;5053470;28;20040;-60
2022/06/20 07:24:28;;;;;;;21.45;5.78;;;;;;;16.52;61.46;101572.31;5036897;28;20029;-60
2022/06/20 07:27:00;;;;;;;24.52;6.18;;;;;;;16.52;61.62;101572.31;5052687;28;20029;-60
2022/06/20 07:29:33;;;;;;;20.95;6.50;;;;;;;16.50;61.69;101563.63;5072284;28;20109;-60
2022/06/20 07:32:06;;;;;;;19.90;5.95;;;;;;;16.35;62.13;101572.13;5071411;28;20056;-60
2022/06/20 07:34:37;;;;;;;16.38;4.78;;;;;;;16.30;62.12;101562.00;5071275;28;20028;-60
2022/06/20 07:37:21;;;;;;;17.15;5.90;;;;;;;16.27;62.66;101561.63;5074289;28;20024;-60
2022/06/20 07:39:58;;;;;;;22.45;6.22;;;;;;;16.35;62.24;101553.22;5055423;28;20480;-60
2022/06/20 07:42:48;;;;;;;17.30;5.55;;;;;;;16.18;62.97;101561.09;5051236;28;20043;-59
2022/06/20 07:45:20;;;;;;;16.48;5.47;;;;;;;16.24;63.44;101553.97;5026464;28;20039;-59
2022/06/20 07:47:58;;;;;;;23.55;5.20;;;;;;;16.34;62.12;101548.88;5074023;28;20060;-60
2022/06/20 07:50:46;;;;;;;21.15;7.05;;;;;;;16.34;62.96;101557.78;5074115;28;20029;-60
2022/06/20 07:53:14;;;;;;;19.05;6.60;;;;;;;15.94;64.36;101560.13;5073826;28;20123;-60
2022/06/20 07:55:45;;;;;;;22.60;6.15;;;;;;;16.05;64.16;101553.97;5073916;28;20036;-60
2022/06/20 07:58:28;;;;;;;19.10;5.90;;;;;;;15.99;63.75;101552.19;5073912;28;20052;-60
2022/06/20 08:00:55;;;;;;;21.25;5.75;;;;;;;15.92;64.27;101553.28;5073301;28;20031;-60
2022/06/20 08:03:48;;;;;;;16.70;5.82;;;;;;;16.03;63.67;101539.03;5073604;28;20035;-59
2022/06/20 08:06:26;;;;;;;23.20;5.65;;;;;;;16.05;62.87;101542.38;5073167;28;20456;-60
2022/06/20 08:09:24;;;;;;;22.80;5.80;;;;;;;16.02;63.62;101529.28;5071827;28;20024;-60
2022/06/20 08:12:38;;;;;;;20.08;6.55;;;;;;;15.95;63.94;101540.19;5071673;28;20121;-60
2022/06/20 08:15:18;;;;;;;14.90;5.28;;;;;;;15.88;63.62;101535.88;5058127;28;20029;-60
2022/06/20 08:17:44;;;;;;;20.48;6.15;;;;;;;15.94;63.64;101525.03;5061972;28;20031;-60
2022/06/20 08:20:11;;;;;;;21.27;5.70;;;;;;;16.05;63.18;101521.56;5072654;28;20029;-60
2022/06/20 08:22:48;;;;;;;19.13;5.88;;;;;;;15.91;63.48;101525.47;5072312;28;20079;-60
2022/06/20 08:25:34;;;;;;;16.92;5.65;;;;;;;15.67;63.67;101531.75;5072242;28;20202;-60
2022/06/20 08:28:13;;;;;;;18.35;5.75;;;;;;;15.86;62.98;101529.88;5071120;28;20048;-60
2022/06/20 08:30:47;;;;;;;17.35;6.22;;;;;;;15.97;62.55;101521.03;5070183;28;20029;-60
2022/06/20 08:33:23;;;;;;;18.35;5.93;;;;;;;15.87;62.77;101518.84;5052951;28;20049;-60
2022/06/20 08:36:17;;;;;;;19.33;6.65;;;;;;;16.05;62.54;101518.88;5054903;28;20052;-60
2022/06/20 08:38:52;;;;;;;25.08;6.97;;;;;;;16.09;62.27;101514.66;5052423;28;20091;-60
2022/06/20 08:41:41;;;;;;;17.93;5.77;;;;;;;16.09;62.00;101508.44;5055364;28;20032;-60
2022/06/20 08:44:17;;;;;;;20.73;6.10;;;;;;;16.09;62.40;101514.66;5063853;28;20025;-60
2022/06/20 08:46:49;;;;;;;17.35;5.70;;;;;;;16.18;61.96;101508.97;5073037;28;20455;-60
2022/06/20 08:49:35;;;;;;;22.23;5.65;;;;;;;16.13;62.37;101506.13;5068218;28;20033;-60
2022/06/20 08:52:16;;;;;;;16.10;5.60;;;;;;;16.25;63.08;101513.22;5063066;28;20023;-60
2022/06/20 08:55:03;;;;;;;16.15;5.45;;;;;;;16.19;63.52;101502.50;5064977;28;20060;-60
2022/06/20 08:57:56;;;;;;;24.30;5.53;;;;;;;16.00;64.01;101507.94;5052954;28;20024;-60
2022/06/20 09:00:28;;;;;;;19.20;5.88;;;;;;;16.02;64.07;101510.41;5062643;28;20021;-60
2022/06/20 09:03:17;;;;;;;17.25;5.60;;;;;;;15.90;64.26;101513.03;5071384;28;20025;-60
2022/06/20 09:05:52;;;;;;;21.85;5.43;;;;;;;15.80;64.56;101504.63;5054006;28;20047;-60
2022/06/20 09:08:35;;;;;;;20.75;5.15;;;;;;;15.79;64.57;101503.78;5061417;28;20366;-60
2022/06/20 09:11:20;;;;;;;17.40;5.35;;;;;;;15.65;65.05;101494.19;5069843;28;20056;-60
2022/06/20 09:14:08;;;;;;;19.75;5.60;;;;;;;15.65;64.96;101513.06;5070215;28;20392;-60
2022/06/20 09:16:43;;;;;;;14.80;5.20;;;;;;;15.82;64.64;101510.59;5058890;28;20473;-60
2022/06/20 09:19:24;;;;;;;22.33;5.75;;;;;;;15.78;64.35;101514.81;5060648;28;20496;-60
2022/06/20 09:22:01;;;;;;;19.70;5.90;;;;;;;15.71;64.40;101511.34;5065450;28;20025;-60
2022/06/20 09:25:05;;;;;;;12.85;4.90;;;;;;;15.55;65.35;101516.25;5054115;28;20025;-60
2022/06/20 09:28:03;;;;;;;21.73;5.65;;;;;;;15.55;65.10;101510.88;5030615;28;20042;-60
2022/06/20 09:30:37;;;;;;;25.25;6.15;;;;;;;15.52;65.17;101507.78;5071173;28;20032;-60
2022/06/20 09:33:27;;;;;;;23.95;5.60;;;;;;;15.43;65.52;101509.09;5055378;28;20481;-60
2022/06/20 09:36:12;;;;;;;22.38;5.40;;;;;;;15.31;65.66;101511.69;5051918;28;20545;-60
2022/06/20 09:38:47;;;;;;;19.63;4.73;;;;;;;15.26;65.64;101514.22;5052145;28;20028;-59
2022/06/20 09:41:31;;;;;;;23.30;5.55;;;;;;;15.22;65.82;101508.47;5056053;28;20108;-59
2022/06/20 09:44:17;;;;;;;21.30;5.35;;;;;;;15.16;66.16;101508.53;5068507;28;20624;-60
2022/06/20 09:47:22;;;;;;;23.27;5.90;;;;;;;15.16;65.96;101497.75;5070807;28;20157;-59
2022/06/20 09:50:17;;;;;;;16.52;5.70;;;;;;;15.23;65.63;101506.59;5054098;28;20116;-60
2022/06/20 09:53:17;;;;;;;26.85;6.28;;;;;;;15.01;66.05;101501.59;5051916;28;20035;-59
2022/06/20 09:56:23;;;;;;;19.30;5.53;;;;;;;15.08;65.95;101506.91;5051773;28;20074;-60
2022/06/20 09:59:07;;;;;;;17.42;5.85;;;;;;;14.90;65.83;101501.47;5052002;28;20104;-60
2022/06/20 10:01:46;;;;;;;20.88;5.43;;;;;;;14.96;65.74;101506.81;5055305;28;20374;-59
2022/06/20 10:04:30;;;;;;;11.93;5.35;;;;;;;14.99;65.37;101506.38;5061252;28;20025;-60
2022/06/20 10:07:10;;;;;;;21.83;5.80;;;;;;;14.98;65.31;101507.41;5053632;28;20044;-60
2022/06/20 10:09:52;;;;;;;18.52;5.50;;;;;;;14.91;65.20;101517.41;5059711;28;20024;-60
2022/06/20 10:12:23;;;;;;;17.77;5.45;;;;;;;14.86;65.43;101514.53;5060185;28;20016;-60
2022/06/20 10:15:15;;;;;;;20.60;5.82;;;;;;;14.91;65.22;101514.72;5067527;28;20032;-60
2022/06/20 10:18:04;;;;;;;18.17;4.53;;;;;;;14.93;64.98;101503.72;5051482;28;20126;-60
2022/06/20 10:20:45;;;;;;;18.67;5.82;;;;;;;14.96;64.99;101504.09;5069543;28;20125;-60
2022/06/20 10:23:18;;;;;;;29.58;7.10;;;;;;;15.04;64.81;101505.69;5052315;28;20044;-60
2022/06/20 10:26:16;;;;;;;20.92;6.13;;;;;;;14.84;64.78;101505.84;5051272;28;20021;-60
2022/06/20 10:28:49;;;;;;;18.25;5.68;;;;;;;14.60;65.76;101504.75;5054995;28;20370;-59
2022/06/20 10:31:40;;;;;;;21.58;5.43;;;;;;;14.63;65.96;101508.88;5069163;28;20024;-60
2022/06/20 10:34:13;;;;;;;16.65;5.07;;;;;;;14.62;66.17;101507.25;5050733;28;20032;-60
2022/06/20 10:36:47;;;;;;;17.88;5.03;;;;;;;14.76;65.32;101498.03;5061914;28;20511;-59
2022/06/20 10:39:42;;;;;;;17.65;6.22;;;;;;;14.72;65.51;101496.81;5071275;28;20043;-59
2022/06/20 10:42:34;;;;;;;20.63;5.85;;;;;;;14.78;65.54;101490.56;5038429;28;20048;-59
2022/06/20 10:45:05;;;;;;;20.02;6.05;;;;;;;14.78;65.51;101493.25;5055495;28;20048;-59
2022/06/20 10:47:41;;;;;;;24.77;6.45;;;;;;;14.64;65.78;101491.69;5053249;28;20040;-59
2022/06/20 10:50:24;;;;;;;19.08;5.72;;;;;;;14.51;66.08;101479.94;5069556;28;20021;-59
2022/06/20 10:53:01;;;;;;;21.25;5.55;;;;;;;14.57;66.07;101485.50;5068429;28;20071;-59
2022/06/20 10:55:52;;;;;;;21.77;5.40;;;;;;;14.61;65.30;101481.34;5067589;28;20029;-59
2022/06/20 10:58:47;;;;;;;19.17;5.80;;;;;;;14.60;65.75;101472.41;5051255;28;20033;-59
2022/06/20 11:01:29;;;;;;;23.98;5.15;;;;;;;14.50;65.95;101472.91;5059022;28;20040;-59
2022/06/20 11:03:58;;;;;;;16.85;5.57;;;;;;;14.55;65.69;101469.56;5051742;28;20036;-59
2022/06/20 11:06:56;;;;;;;22.80;6.13;;;;;;;14.50;66.05;101464.00;5071033;28;20029;-59
2022/06/20 11:09:35;;;;;;;27.73;6.38;;;;;;;14.46;66.24;101454.66;5063375;28;20440;-59
2022/06/20 11:12:26;;;;;;;15.85;5.40;;;;;;;14.49;66.48;101457.81;5063298;28;20025;-59
2022/06/20 11:15:13;;;;;;;20.15;5.43;;;;;;;14.39;67.04;101460.09;5057415;28;20512;-59
2022/06/20 11:18:17;;;;;;;19.95;5.45;;;;;;;14.51;66.89;101457.56;5054094;28;20159;-59
2022/06/20 11:21:05;;;;;;;26.92;5.60;;;;;;;14.48;67.14;101458.00;5069740;28;20068;-59
2022/06/20 11:23:48;;;;;;;21.98;5.72;;;;;;;14.37;67.33;101456.78;5060964;28;20423;-59
2022/06/20 11:26:29;;;;;;;20.52;5.47;;;;;;;14.33;67.74;101455.59;5070534;28;20024;-59
2022/06/20 11:28:56;;;;;;;18.17;5.72;;;;;;;14.27;68.38;101454.56;5050520;28;20102;-59
2022/06/20 11:31:48;;;;;;;18.73;5.80;;;;;;;14.38;68.02;101452.22;5032953;28;20048;-59
2022/06/20 11:34:32;;;;;;;24.38;6.22;;;;;;;14.37;68.45;101458.66;5058247;28;20067;-59
2022/06/20 11:37:04;;;;;;;23.15;5.38;;;;;;;14.31;68.14;101457.66;5070203;28;20408;-59
2022/06/20 11:39:39;;;;;;;20.10;4.95;;;;;;;14.18;68.68;101465.81;5062712;28;20025;-59
2022/06/20 11:42:23;;;;;;;22.98;6.03;;;;;;;14.24;68.59;101464.94;5071986;28;20017;-59
2022/06/20 11:45:00;;;;;;;19.10;5.68;;;;;;;14.22;68.70;101472.41;5063587;28;20036;-58
2022/06/20 11:47:57;;;;;;;22.52;6.05;;;;;;;14.26;68.54;101471.75;5060732;28;20032;-58
2022/06/20 11:50:45;;;;;;;21.83;5.18;;;;;;;14.10;68.94;101476.78;5052134;28;20033;-57
2022/06/20 11:53:23;;;;;;;17.33;5.35;;;;;;;13.94;68.66;101481.66;5070270;28;20028;-60
2022/06/20 11:55:52;;;;;;;15.32;5.22;;;;;;;14.05;67.87;101482.00;5071065;28;20046;-58
2022/06/20 11:58:28;;;;;;;18.88;5.38;;;;;;;14.11;67.38;101491.94;5073950;28;20028;-59
2022/06/20 12:01:02;;;;;;;19.67;5.70;;;;;;;13.80;67.92;101500.72;5061520;28;20035;-59
2022/06/20 12:03:52;;;;;;;11.88;4.78;;;;;;;13.72;66.86;101507.16;5063207;28;20029;-59
2022/06/20 12:06:24;;;;;;;16.48;5.47;;;;;;;13.77;66.40;101501.97;5067239;28;20116;-59
2022/06/20 12:09:00;;;;;;;11.20;4.82;;;;;;;13.96;65.50;101493.00;5053913;28;20243;-59
2022/06/20 12:11:59;;;;;;;16.40;4.90;;;;;;;14.02;64.67;101485.94;5053543;28;20025;-59